Time;durP1;ratioP1;P1;durP2;ratioP2;P2;SDS_P1;SDS_P2;PMS_P1;PMS_P2;Temp;Humidity;BMP_temperature;BMP_pressure;BME280_temperature;BME280_humidity;BME280_pressure;Samples;Min_cycle;Max_cycle;Signal;HPM_P1;HPM_P2
2023/08/05 00:00:58;;;;;;;4.47;3.53;;;;;;;27.64;100.00;97662.00;5043894;28;20096;-67
2023/08/05 00:03:27;;;;;;;5.35;3.35;;;;;;;27.70;100.00;97670.78;5070156;28;20128;-66
2023/08/05 00:05:56;;;;;;;7.28;4.15;;;;;;;27.55;100.00;97669.41;5057366;28;20052;-66
2023/08/05 00:08:26;;;;;;;4.70;3.47;;;;;;;27.61;100.00;97667.31;5077389;28;20878;-66
2023/08/05 00:10:55;;;;;;;6.88;3.75;;;;;;;27.62;100.00;97669.69;5063642;28;20489;-65
2023/08/05 00:16:14;;;;;;;5.70;4.25;;;;;;;27.62;100.00;97683.28;5064446;28;20066;-66
2023/08/05 00:18:43;;;;;;;6.45;4.13;;;;;;;27.68;100.00;97687.44;5083287;28;20131;-66
2023/08/05 00:21:13;;;;;;;6.05;4.07;;;;;;;27.68;100.00;97690.16;5062550;28;20801;-66
2023/08/05 00:23:42;;;;;;;5.80;4.50;;;;;;;27.61;100.00;97702.69;5065636;28;20854;-66
2023/08/05 00:26:11;;;;;;;5.68;3.60;;;;;;;27.70;100.00;97706.16;5080594;28;20048;-66
2023/08/05 00:28:40;;;;;;;5.57;4.57;;;;;;;27.70;100.00;97698.78;5065631;28;20527;-67
2023/08/05 00:31:10;;;;;;;6.82;4.13;;;;;;;27.60;100.00;97707.31;5059672;28;20041;-66
2023/08/05 00:33:40;;;;;;;7.28;3.70;;;;;;;27.68;100.00;97711.13;5039268;28;20205;-66
2023/08/05 00:36:09;;;;;;;4.93;3.83;;;;;;;27.71;100.00;97726.78;5061212;28;20677;-66
2023/08/05 00:38:38;;;;;;;7.60;4.00;;;;;;;27.74;100.00;97733.50;5062714;28;20047;-65
2023/08/05 00:41:08;;;;;;;5.60;3.38;;;;;;;27.77;100.00;97732.84;5062626;28;20044;-65
2023/08/05 00:43:37;;;;;;;4.32;3.60;;;;;;;27.79;100.00;97731.41;5046663;28;20079;-69
2023/08/05 00:46:08;;;;;;;7.05;4.10;;;;;;;27.81;100.00;97731.06;5053130;28;20033;-66
2023/08/05 00:48:38;;;;;;;5.57;3.30;;;;;;;27.81;100.00;97736.50;5062334;28;20047;-66
2023/08/05 00:51:08;;;;;;;5.65;3.67;;;;;;;27.87;100.00;97748.81;5060734;28;20846;-66
2023/08/05 00:53:38;;;;;;;5.93;3.92;;;;;;;27.90;100.00;97745.44;5062216;28;21232;-66
2023/08/05 00:56:08;;;;;;;4.88;3.20;;;;;;;27.89;100.00;97746.53;5057822;28;20039;-66
2023/08/05 00:58:39;;;;;;;6.35;3.92;;;;;;;27.70;100.00;97752.41;5058806;28;20049;-67
2023/08/05 01:01:09;;;;;;;6.47;3.72;;;;;;;27.87;100.00;97752.34;5093176;28;20506;-66
2023/08/05 01:03:39;;;;;;;6.15;3.70;;;;;;;27.96;100.00;97755.00;5061846;28;20299;-66
2023/08/05 01:06:08;;;;;;;7.60;4.28;;;;;;;27.94;100.00;97752.59;5059581;28;20151;-66
2023/08/05 01:08:40;;;;;;;4.85;3.50;;;;;;;27.97;100.00;97762.84;5080478;28;20109;-66
2023/08/05 01:11:11;;;;;;;5.35;4.07;;;;;;;27.97;100.00;97768.28;5045890;28;20665;-66
2023/08/05 01:13:42;;;;;;;6.25;4.93;;;;;;;28.02;100.00;97767.28;5080435;28;20090;-66
2023/08/05 01:16:12;;;;;;;7.80;3.97;;;;;;;28.04;100.00;97767.78;5044365;28;20205;-66
2023/08/05 01:18:43;;;;;;;4.82;3.47;;;;;;;28.08;100.00;97768.72;5055595;28;20134;-66
2023/08/05 01:21:32;;;;;;;7.60;4.30;;;;;;;28.12;100.00;97769.69;5057977;28;20122;-66
2023/08/05 01:24:25;;;;;;;9.02;3.92;;;;;;;28.15;100.00;97781.84;5063071;28;20059;-66
2023/08/05 01:26:54;;;;;;;;;;;;;;;28.19;100.00;97780.06;5062556;28;20348;-66
2023/08/05 01:29:24;;;;;;;7.70;4.25;;;;;;;28.21;100.00;97789.50;5058547;28;19932;-66
2023/08/05 01:31:55;;;;;;;7.40;4.00;;;;;;;28.26;100.00;97796.66;5079871;28;20058;-66
2023/08/05 01:34:26;;;;;;;6.53;4.03;;;;;;;28.35;100.00;97806.38;5058089;28;20121;-66
2023/08/05 01:36:56;;;;;;;5.80;4.00;;;;;;;28.41;100.00;97812.44;5040921;28;20118;-67
2023/08/05 01:39:25;;;;;;;4.72;4.03;;;;;;;28.30;100.00;97817.47;5026821;28;20048;-66
2023/08/05 01:41:55;;;;;;;7.13;4.53;;;;;;;28.35;100.00;97830.91;5046943;28;20040;-66
2023/08/05 01:44:24;;;;;;;8.38;3.90;;;;;;;28.47;100.00;97836.44;5055167;28;20091;-66
2023/08/05 01:47:00;;;;;;;6.45;4.57;;;;;;;28.45;100.00;97838.72;5058169;28;20542;-65
2023/08/05 01:49:29;;;;;;;13.10;4.53;;;;;;;28.48;100.00;97840.75;5076044;28;20736;-66
2023/08/05 01:51:59;;;;;;;7.03;4.72;;;;;;;28.57;100.00;97852.41;5046663;28;20498;-66
2023/08/05 01:54:28;;;;;;;7.90;4.53;;;;;;;28.56;100.00;97858.19;5063758;28;20048;-66
2023/08/05 01:56:57;;;;;;;8.23;4.80;;;;;;;28.64;100.00;97845.63;5091712;28;20075;-66
2023/08/05 01:59:27;;;;;;;11.75;6.20;;;;;;;28.76;100.00;97845.75;5063998;28;20056;-66
2023/08/05 02:01:56;;;;;;;50.53;35.42;;;;;;;28.94;100.00;97856.16;5066439;28;20079;-66
2023/08/05 02:04:25;;;;;;;63.35;46.25;;;;;;;28.89;100.00;97847.41;5059846;28;20063;-67
2023/08/05 02:06:55;;;;;;;74.45;48.80;;;;;;;28.77;100.00;97852.78;5054893;28;20040;-67
2023/08/05 02:09:24;;;;;;;61.80;44.95;;;;;;;28.90;100.00;97857.97;5055416;28;20075;-67
2023/08/05 02:11:54;;;;;;;64.38;45.42;;;;;;;29.04;100.00;97865.88;5065024;28;20040;-67
2023/08/05 02:14:23;;;;;;;51.38;37.70;;;;;;;29.15;100.00;97860.84;5043623;28;20049;-67
2023/08/05 02:16:54;;;;;;;50.13;37.92;;;;;;;29.25;100.00;97861.22;5031574;28;20407;-67
2023/08/05 02:19:23;;;;;;;51.88;40.33;;;;;;;29.20;100.00;97866.09;5067194;28;20052;-67
2023/08/05 02:22:20;;;;;;;43.60;34.53;;;;;;;29.17;100.00;97872.19;5029130;28;20056;-67
2023/08/05 02:24:51;;;;;;;49.65;38.03;;;;;;;29.36;100.00;97873.34;5065686;28;20133;-66
2023/08/05 02:27:21;;;;;;;45.58;36.22;;;;;;;29.65;100.00;97871.63;5062938;28;20051;-67
2023/08/05 02:29:51;;;;;;;51.67;36.85;;;;;;;29.68;100.00;97869.03;5049366;28;20066;-67
2023/08/05 02:32:20;;;;;;;51.58;39.58;;;;;;;29.88;100.00;97868.16;5067869;28;20204;-67
2023/08/05 02:34:51;;;;;;;50.13;38.00;;;;;;;29.82;100.00;97860.53;5068348;28;20576;-67
2023/08/05 02:37:21;;;;;;;46.85;33.78;;;;;;;30.09;100.00;97864.56;5085264;28;20478;-66
2023/08/05 02:39:51;;;;;;;42.83;30.25;;;;;;;29.98;100.00;97861.47;5060060;28;20607;-67
2023/08/05 02:42:20;;;;;;;47.13;31.55;;;;;;;29.70;100.00;97853.09;5060513;28;20105;-67
2023/08/05 02:44:51;;;;;;;47.80;34.53;;;;;;;30.03;100.00;97850.34;5083507;28;20063;-67
2023/08/05 02:47:20;;;;;;;48.83;34.42;;;;;;;30.23;100.00;97845.88;5066979;28;20052;-68
2023/08/05 02:49:49;;;;;;;48.42;34.38;;;;;;;30.60;100.00;97841.25;5068860;28;20139;-67
2023/08/05 02:52:19;;;;;;;50.97;35.40;;;;;;;30.81;99.87;97846.53;5061037;28;20048;-67
2023/08/05 02:54:48;;;;;;;47.67;35.53;;;;;;;30.90;100.00;97847.19;5067516;28;20425;-67
2023/08/05 02:57:17;;;;;;;55.92;42.45;;;;;;;30.90;100.00;97850.75;5067630;28;20056;-67
2023/08/05 02:59:47;;;;;;;59.90;43.47;;;;;;;30.43;100.00;97850.44;5068025;28;20051;-67
2023/08/05 03:02:16;;;;;;;53.72;42.42;;;;;;;30.52;100.00;97853.09;5067728;28;20051;-66
2023/08/05 03:04:46;;;;;;;45.92;37.55;;;;;;;30.83;100.00;97853.28;5059719;28;20044;-67
2023/08/05 03:07:15;;;;;;;48.25;34.50;;;;;;;30.60;100.00;97846.69;5065704;28;20040;-66
2023/08/05 03:09:44;;;;;;;37.17;28.25;;;;;;;30.71;100.00;97842.38;5067024;28;20135;-66
2023/08/05 03:12:13;;;;;;;35.38;26.52;;;;;;;30.43;100.00;97846.91;5058163;28;20053;-66
2023/08/05 03:14:43;;;;;;;35.50;25.65;;;;;;;30.20;100.00;97847.38;5044245;28;20050;-66
2023/08/05 03:17:13;;;;;;;32.40;24.60;;;;;;;30.45;100.00;97850.16;5050492;28;20098;-65
2023/08/05 03:19:43;;;;;;;34.33;25.58;;;;;;;30.72;100.00;97847.47;5066185;28;20150;-65
2023/08/05 03:25:01;;;;;;;32.50;24.92;;;;;;;30.75;100.00;97841.34;5043181;28;20472;-65
2023/08/05 03:27:31;;;;;;;34.25;25.02;;;;;;;30.78;100.00;97850.78;5060871;28;20053;-66
2023/08/05 03:30:05;;;;;;;31.98;23.30;;;;;;;30.72;100.00;97836.53;5033350;28;20044;-66
2023/08/05 03:32:36;;;;;;;34.88;22.30;;;;;;;30.71;100.00;97836.91;5031521;28;20040;-66
2023/08/05 03:35:05;;;;;;;29.85;20.50;;;;;;;30.84;100.00;97841.19;5061272;28;20040;-67
2023/08/05 03:37:36;;;;;;;24.73;19.92;;;;;;;30.63;100.00;97843.28;5045361;28;20044;-67
2023/08/05 03:40:06;;;;;;;22.33;17.17;;;;;;;30.70;100.00;97841.56;5046029;28;20463;-66
2023/08/05 03:42:37;;;;;;;20.33;14.20;;;;;;;30.85;100.00;97842.78;5043197;28;20080;-67
2023/08/05 03:45:07;;;;;;;12.57;11.25;;;;;;;30.82;100.00;97848.94;5044900;28;20051;-67
2023/08/05 03:47:38;;;;;;;12.55;10.07;;;;;;;30.98;100.00;97855.28;5046227;28;20068;-66
2023/08/05 03:52:57;;;;;;;11.40;9.75;;;;;;;31.40;100.00;97849.44;5047228;28;20048;-66
2023/08/05 03:58:19;;;;;;;11.15;8.38;;;;;;;31.38;100.00;97863.47;5044506;28;20048;-66
2023/08/05 04:00:51;;;;;;;9.93;8.07;;;;;;;31.27;100.00;97850.66;5063024;28;20049;-67
2023/08/05 04:03:22;;;;;;;10.77;8.65;;;;;;;31.48;100.00;97862.97;5024560;28;20072;-67
2023/08/05 04:05:52;;;;;;;10.40;9.07;;;;;;;31.19;100.00;97864.16;5044440;28;20049;-67
2023/08/05 04:08:22;;;;;;;11.73;9.25;;;;;;;31.15;100.00;97862.44;5043156;28;20060;-66
2023/08/05 04:10:52;;;;;;;11.63;9.68;;;;;;;31.71;99.91;97865.19;5045100;28;20139;-66
2023/08/05 04:13:24;;;;;;;13.65;10.32;;;;;;;32.02;98.92;97876.97;5043879;28;20064;-67
2023/08/05 04:15:56;;;;;;;14.15;11.43;;;;;;;31.64;99.34;97879.50;5043494;28;20472;-66
2023/08/05 04:18:27;;;;;;;12.20;10.68;;;;;;;31.90;98.45;97879.00;5044042;28;20056;-66
2023/08/05 04:20:57;;;;;;;12.85;10.13;;;;;;;32.22;96.83;97875.13;5042864;28;20044;-68
2023/08/05 04:23:30;;;;;;;13.50;11.38;;;;;;;32.24;96.33;97872.03;5027093;28;20055;-68
2023/08/05 04:26:00;;;;;;;12.50;11.30;;;;;;;32.37;96.63;97873.53;5052962;28;20052;-69
2023/08/05 04:28:29;;;;;;;15.70;11.98;;;;;;;32.33;94.90;97876.19;5040346;28;20059;-69
2023/08/05 04:30:59;;;;;;;14.50;12.95;;;;;;;32.17;97.45;97874.63;5059005;28;20081;-68
2023/08/05 04:33:28;;;;;;;14.73;12.40;;;;;;;32.33;99.30;97875.41;5055939;28;20051;-67
2023/08/05 04:35:59;;;;;;;13.70;11.35;;;;;;;32.70;97.10;97878.66;5061028;28;20044;-68
2023/08/05 04:38:28;;;;;;;12.60;11.23;;;;;;;32.76;94.31;97882.69;5034191;28;20041;-66
2023/08/05 04:40:58;;;;;;;17.83;10.85;;;;;;;33.07;92.12;97881.81;5045409;28;20051;-65
2023/08/05 04:43:28;;;;;;;13.27;10.70;;;;;;;32.96;92.41;97893.38;5045928;28;20365;-67
2023/08/05 04:45:58;;;;;;;15.57;13.32;;;;;;;32.72;93.57;97887.31;5050917;28;20041;-66
2023/08/05 04:48:28;;;;;;;18.65;13.05;;;;;;;32.79;96.60;97891.03;5042945;28;20078;-66
2023/08/05 04:50:59;;;;;;;14.20;12.13;;;;;;;33.23;94.50;97886.13;5046835;28;20480;-65
2023/08/05 04:53:30;;;;;;;18.10;14.55;;;;;;;32.65;94.09;97881.69;5032131;28;20559;-65
2023/08/05 04:55:59;;;;;;;16.27;13.02;;;;;;;32.92;96.73;97878.78;5074067;28;20079;-66
2023/08/05 04:58:29;;;;;;;14.55;13.02;;;;;;;33.26;94.63;97876.38;5075472;28;20052;-66
2023/08/05 05:00:58;;;;;;;19.48;15.52;;;;;;;33.43;93.96;97875.94;5084844;28;20113;-65
2023/08/05 05:03:28;;;;;;;18.40;14.95;;;;;;;33.80;91.89;97876.28;5085678;28;20126;-65
2023/08/05 05:05:58;;;;;;;20.75;17.15;;;;;;;34.00;89.07;97886.03;5086992;28;20052;-65
2023/08/05 05:08:27;;;;;;;19.33;16.50;;;;;;;34.16;91.58;97877.69;5076626;28;20152;-65
2023/08/05 05:10:57;;;;;;;21.95;16.73;;;;;;;33.74;91.19;97889.50;5074101;28;20080;-65
2023/08/05 05:13:26;;;;;;;22.85;18.33;;;;;;;32.89;97.01;97890.44;5084504;28;20048;-64
2023/08/05 05:15:55;;;;;;;23.63;18.42;;;;;;;32.94;93.84;97883.88;5071347;28;20071;-64
2023/08/05 05:18:24;;;;;;;19.10;17.02;;;;;;;32.40;96.86;97870.88;5084073;28;20169;-65
2023/08/05 05:20:54;;;;;;;20.23;17.02;;;;;;;32.66;97.48;97881.31;5089764;28;20048;-65
2023/08/05 05:23:23;;;;;;;21.35;16.73;;;;;;;33.21;96.46;97877.44;5091841;28;20052;-64
2023/08/05 05:25:53;;;;;;;19.92;16.23;;;;;;;33.68;91.40;97879.97;5074231;28;20051;-65
2023/08/05 05:28:22;;;;;;;18.73;15.68;;;;;;;33.46;90.83;97880.69;5073753;28;20083;-65
2023/08/05 05:30:52;;;;;;;21.40;16.55;;;;;;;33.75;90.52;97880.13;5085291;28;20052;-67
2023/08/05 05:33:21;;;;;;;20.42;16.15;;;;;;;33.91;89.20;97880.00;5061661;28;20495;-66
2023/08/05 05:35:50;;;;;;;18.35;15.73;;;;;;;34.17;88.11;97877.34;5082666;28;20572;-66
2023/08/05 05:38:20;;;;;;;18.38;15.55;;;;;;;34.37;89.93;97867.06;5080455;28;20083;-65
2023/08/05 05:40:49;;;;;;;27.20;16.90;;;;;;;34.36;86.38;97872.91;5083397;28;20059;-66
2023/08/05 05:43:18;;;;;;;19.02;15.57;;;;;;;33.90;88.81;97872.13;5035690;28;20044;-66
2023/08/05 05:45:51;;;;;;;19.77;15.13;;;;;;;34.13;87.04;97870.94;5031656;28;20055;-66
2023/08/05 05:48:21;;;;;;;17.58;14.90;;;;;;;34.50;84.58;97865.69;5064862;28;20045;-66
2023/08/05 05:50:52;;;;;;;18.80;15.38;;;;;;;34.03;85.91;97866.09;5057176;28;20060;-70
2023/08/05 05:53:22;;;;;;;21.02;14.65;;;;;;;34.49;89.08;97864.09;5070863;28;20607;-68
2023/08/05 05:55:54;;;;;;;17.00;14.70;;;;;;;34.68;86.49;97861.28;5068994;28;20056;-66
2023/08/05 05:58:24;;;;;;;24.10;15.57;;;;;;;34.34;88.26;97856.00;5080797;28;20191;-66
2023/08/05 06:00:57;;;;;;;16.98;13.68;;;;;;;34.92;86.07;97867.50;5063842;28;20466;-64
2023/08/05 06:03:27;;;;;;;17.95;13.38;;;;;;;35.18;84.32;97861.97;5084665;28;20056;-64
2023/08/05 06:05:59;;;;;;;15.30;13.05;;;;;;;35.06;83.38;97862.16;5082003;28;20056;-65
2023/08/05 06:08:29;;;;;;;19.30;13.93;;;;;;;34.92;82.45;97862.00;5082867;28;20139;-67
2023/08/05 06:11:18;;;;;;;19.13;12.82;;;;;;;34.88;82.39;97861.94;5062507;28;20051;-67
2023/08/05 06:13:54;;;;;;;17.75;14.05;;;;;;;34.56;81.50;97846.94;5066070;28;20044;-64
2023/08/05 06:16:23;;;;;;;18.83;13.68;;;;;;;34.90;82.86;97847.81;5069588;28;20047;-64
2023/08/05 06:18:54;;;;;;;18.90;12.43;;;;;;;35.05;81.87;97841.34;5067702;28;20383;-71
2023/08/05 06:21:23;;;;;;;14.93;12.25;;;;;;;35.03;84.15;97836.19;5087218;28;20051;-71
2023/08/05 06:24:11;;;;;;;16.92;12.65;;;;;;;35.26;83.52;97840.81;5072886;28;20134;-70
2023/08/05 06:26:40;;;;;;;20.50;13.55;;;;;;;35.24;80.77;97838.44;5087784;28;20392;-69
2023/08/05 06:29:10;;;;;;;21.67;13.55;;;;;;;35.21;80.28;97835.66;5099112;27;20067;-71
2023/08/05 06:31:40;;;;;;;18.70;13.63;;;;;;;34.75;78.77;97830.31;5100847;28;20166;-71
2023/08/05 06:34:09;;;;;;;18.73;12.27;;;;;;;34.96;83.03;97832.56;5098832;28;20043;-66
2023/08/05 06:36:39;;;;;;;16.70;12.65;;;;;;;35.00;81.99;97825.16;5097034;28;20120;-69
2023/08/05 06:39:08;;;;;;;22.58;12.40;;;;;;;34.95;83.21;97815.25;5098138;28;20043;-69
2023/08/05 06:41:38;;;;;;;19.17;12.90;;;;;;;35.00;82.63;97825.16;5095341;27;20055;-70
2023/08/05 06:44:07;;;;;;;18.80;12.50;;;;;;;35.22;82.32;97824.28;5069755;28;20482;-71
2023/08/05 06:46:39;;;;;;;20.80;13.60;;;;;;;34.88;82.37;97820.66;5097576;28;20054;-74
2023/08/05 06:49:10;;;;;;;18.30;12.85;;;;;;;34.36;82.90;97821.47;5083183;28;20040;-72
2023/08/05 06:51:39;;;;;;;19.60;13.73;;;;;;;34.01;85.65;97823.63;5076798;28;20051;-75
2023/08/05 06:54:10;;;;;;;20.95;13.35;;;;;;;33.80;85.61;97821.31;5071391;28;20066;-74
2023/08/05 06:56:40;;;;;;;21.15;13.77;;;;;;;33.80;88.32;97815.84;5085501;27;20135;-69
2023/08/05 06:59:09;;;;;;;16.65;13.20;;;;;;;33.83;86.94;97813.13;5088132;27;20110;-69
2023/08/05 07:01:40;;;;;;;24.02;14.13;;;;;;;33.78;88.22;97807.94;5099955;27;20046;-67
2023/08/05 07:04:10;;;;;;;17.17;13.70;;;;;;;33.78;87.67;97813.44;5083074;27;20044;-69
2023/08/05 07:06:39;;;;;;;17.02;12.48;;;;;;;33.69;89.07;97809.34;5081999;28;20051;-69
2023/08/05 07:09:08;;;;;;;17.63;14.18;;;;;;;33.64;89.85;97804.91;5100388;27;20081;-69
2023/08/05 07:11:38;;;;;;;19.20;13.63;;;;;;;33.73;87.50;97804.69;5101355;28;20108;-71
2023/08/05 07:14:07;;;;;;;17.48;13.48;;;;;;;33.78;88.19;97796.16;5081477;28;20063;-70
2023/08/05 07:16:37;;;;;;;21.30;13.77;;;;;;;33.94;88.09;97796.03;5098666;27;20040;-69
2023/08/05 07:19:07;;;;;;;21.48;14.20;;;;;;;33.82;87.83;97786.81;5094627;27;20063;-70
2023/08/05 07:21:39;;;;;;;25.67;14.90;;;;;;;34.07;90.13;97780.94;5079225;28;20043;-70
2023/08/05 07:24:08;;;;;;;19.30;14.80;;;;;;;33.89;86.02;97788.09;5080005;27;20054;-70
2023/08/05 07:26:38;;;;;;;20.40;13.82;;;;;;;33.91;86.68;97777.53;5099447;27;20047;-68
2023/08/05 07:29:07;;;;;;;27.08;15.57;;;;;;;33.84;88.32;97783.72;5081308;27;20052;-72
2023/08/05 07:31:36;;;;;;;22.23;14.25;;;;;;;33.57;89.96;97769.09;5057814;28;20055;-71
2023/08/05 07:34:11;;;;;;;23.02;14.07;;;;;;;33.43;91.32;97771.59;5069067;28;20052;-72
2023/08/05 07:36:43;;;;;;;19.05;12.88;;;;;;;33.32;97.77;97770.63;5065464;28;20044;-71
2023/08/05 07:39:13;;;;;;;19.45;14.00;;;;;;;33.23;96.71;97764.56;5057234;28;20052;-67
2023/08/05 07:41:42;;;;;;;22.08;13.77;;;;;;;33.22;95.17;97757.47;5054318;28;20094;-69
2023/08/05 07:44:12;;;;;;;21.85;14.25;;;;;;;33.46;93.17;97761.84;5054749;28;20052;-68
2023/08/05 07:46:42;;;;;;;19.67;13.68;;;;;;;33.51;91.73;97759.56;5060597;28;20048;-67
2023/08/05 07:49:12;;;;;;;22.42;14.13;;;;;;;33.55;88.73;97757.66;5060960;28;20048;-68
2023/08/05 07:51:45;;;;;;;18.48;12.82;;;;;;;33.95;87.66;97756.38;5077485;28;20044;-70
2023/08/05 07:54:15;;;;;;;17.77;13.90;;;;;;;34.13;87.50;97757.47;5073102;28;20048;-70
2023/08/05 07:56:45;;;;;;;18.85;14.20;;;;;;;34.17;87.09;97756.38;5058553;28;20055;-70
2023/08/05 07:59:17;;;;;;;19.63;14.73;;;;;;;34.15;84.70;97746.91;5056714;28;20052;-68
2023/08/05 08:01:46;;;;;;;24.53;14.73;;;;;;;34.09;84.33;97748.38;5082602;28;20120;-73
2023/08/05 08:04:17;;;;;;;21.65;14.68;;;;;;;34.16;87.49;97743.81;5045329;28;20048;-75
2023/08/05 08:06:47;;;;;;;20.77;13.38;;;;;;;34.43;87.45;97743.78;5077816;28;20118;-68
2023/08/05 08:09:17;;;;;;;18.45;14.13;;;;;;;34.45;85.75;97745.00;5047077;28;20052;-72
2023/08/05 08:11:46;;;;;;;20.67;14.40;;;;;;;34.31;86.22;97731.03;5079436;28;20044;-70
2023/08/05 08:14:16;;;;;;;23.98;13.80;;;;;;;34.44;87.24;97737.09;5042197;28;20040;-72
2023/08/05 08:16:46;;;;;;;25.13;14.63;;;;;;;34.39;87.92;97732.72;5076585;28;20036;-68
2023/08/05 08:19:18;;;;;;;22.23;14.95;;;;;;;34.28;86.12;97729.06;5059181;28;20062;-68
2023/08/05 08:21:48;;;;;;;25.25;14.95;;;;;;;33.88;87.82;97732.34;5074632;28;20040;-77
2023/08/05 08:24:18;;;;;;;20.10;13.27;;;;;;;33.92;88.09;97733.19;5074508;28;20048;-70
2023/08/05 08:26:51;;;;;;;18.40;14.07;;;;;;;33.91;88.63;97725.31;5063978;28;20048;-72
2023/08/05 08:29:20;;;;;;;22.30;15.02;;;;;;;33.84;86.88;97720.53;5075698;28;20056;-69
2023/08/05 08:31:49;;;;;;;21.90;14.45;;;;;;;33.87;88.45;97717.03;5061396;28;20044;-69
2023/08/05 08:34:19;;;;;;;21.50;14.23;;;;;;;33.98;88.34;97708.94;5057825;28;20158;-73
2023/08/05 08:36:49;;;;;;;23.75;15.48;;;;;;;34.15;87.02;97705.66;5076636;28;20040;-69
2023/08/05 08:39:36;;;;;;;22.95;15.68;;;;;;;34.20;85.84;97705.38;5062033;28;20055;-70
2023/08/05 08:42:06;;;;;;;24.67;15.27;;;;;;;34.06;86.47;97705.94;5062645;28;20032;-70
2023/08/05 08:44:39;;;;;;;25.88;16.38;;;;;;;34.02;92.24;97698.81;5073876;28;20474;-68
2023/08/05 08:47:09;;;;;;;26.70;16.83;;;;;;;34.00;90.80;97687.38;5073764;28;20063;-67
2023/08/05 08:49:39;;;;;;;22.38;16.02;;;;;;;34.09;92.46;97685.94;5043602;28;20139;-66
2023/08/05 08:52:12;;;;;;;25.40;17.25;;;;;;;34.04;87.21;97688.22;5078101;28;20135;-67
2023/08/05 08:54:42;;;;;;;37.00;19.73;;;;;;;33.92;86.06;97686.50;5063676;28;20049;-67
2023/08/05 08:57:13;;;;;;;30.70;18.00;;;;;;;33.86;90.48;97687.97;5075438;28;20039;-67
2023/08/05 08:59:43;;;;;;;32.88;19.83;;;;;;;33.72;94.06;97688.56;5061783;28;20056;-67
2023/08/05 09:02:13;;;;;;;30.23;19.85;;;;;;;33.75;91.15;97684.25;5077377;28;20175;-67
2023/08/05 09:04:46;;;;;;;33.88;21.38;;;;;;;33.93;90.24;97682.59;5077535;28;20051;-66
2023/08/05 09:07:17;;;;;;;30.58;19.55;;;;;;;34.08;86.53;97676.09;5055253;28;20051;-67
2023/08/05 09:09:49;;;;;;;36.70;20.92;;;;;;;34.05;84.27;97667.81;5077749;28;20048;-67
2023/08/05 09:12:19;;;;;;;34.55;20.92;;;;;;;34.00;86.68;97660.69;5062124;28;20047;-66
2023/08/05 09:14:57;;;;;;;28.15;18.17;;;;;;;33.98;85.67;97667.72;5060713;28;20134;-67
2023/08/05 09:20:25;;;;;;;33.05;20.92;;;;;;;33.98;90.33;97646.53;5057029;28;20101;-69
2023/08/05 09:22:56;;;;;;;32.53;21.05;;;;;;;33.94;90.68;97644.91;5076939;28;20045;-71
2023/08/05 09:25:26;;;;;;;35.75;22.77;;;;;;;33.94;89.66;97639.41;5087309;28;20518;-74
2023/08/05 09:27:56;;;;;;;32.67;21.23;;;;;;;33.87;86.83;97634.59;5073858;28;20486;-66
2023/08/05 09:30:28;;;;;;;40.88;21.60;;;;;;;33.93;88.02;97632.31;5075949;28;20044;-68
2023/08/05 09:32:58;;;;;;;27.20;19.15;;;;;;;33.90;88.28;97628.38;5098731;28;20044;-68
2023/08/05 09:35:29;;;;;;;32.63;18.63;;;;;;;33.97;90.40;97627.66;5078374;28;20131;-67
2023/08/05 09:38:00;;;;;;;28.90;16.55;;;;;;;33.98;86.24;97618.28;5079320;28;20032;-68
2023/08/05 09:40:50;;;;;;;26.63;16.25;;;;;;;34.05;86.20;97615.59;5093644;28;20063;-66
2023/08/05 09:43:58;;;;;;;24.52;15.63;;;;;;;34.28;88.11;97617.13;5097402;28;20056;-67
2023/08/05 09:49:33;;;;;;;24.15;13.40;;;;;;;34.27;85.74;97606.50;5089863;28;20142;-66
2023/08/05 09:52:03;;;;;;;29.45;13.23;;;;;;;33.96;81.23;97604.09;5074761;28;20127;-67
2023/08/05 09:54:37;;;;;;;19.20;12.23;;;;;;;33.97;82.59;97600.19;5076783;28;20109;-67
2023/08/05 09:57:09;;;;;;;23.00;11.55;;;;;;;33.98;82.05;97588.84;5093596;28;20055;-64
2023/08/05 09:59:41;;;;;;;23.17;11.35;;;;;;;33.97;81.12;97584.50;5069176;28;20047;-67
2023/08/05 10:02:13;;;;;;;24.63;12.57;;;;;;;33.98;83.19;97582.53;5089250;28;20586;-67
2023/08/05 10:04:43;;;;;;;23.67;11.23;;;;;;;33.92;82.88;97581.28;5090572;28;20063;-65
2023/08/05 10:07:14;;;;;;;26.58;12.77;;;;;;;33.88;86.08;97585.94;5072440;28;20883;-66
2023/08/05 10:09:44;;;;;;;25.35;16.02;;;;;;;33.80;85.98;97583.09;5071386;28;20472;-65
2023/08/05 10:12:17;;;;;;;42.25;23.65;;;;;;;33.76;90.03;97575.97;5075895;28;20659;-67
2023/08/05 10:14:47;;;;;;;37.45;23.17;;;;;;;33.81;90.54;97570.94;5094576;28;20047;-66
2023/08/05 10:17:21;;;;;;;31.08;22.92;;;;;;;33.81;90.42;97564.66;5092835;28;20047;-67
2023/08/05 10:19:52;;;;;;;30.73;22.42;;;;;;;33.80;91.10;97566.63;5075814;28;20109;-65
2023/08/05 10:22:24;;;;;;;36.25;24.45;;;;;;;33.75;90.37;97555.94;5094484;28;20538;-65
2023/08/05 10:24:58;;;;;;;31.42;23.60;;;;;;;33.77;92.51;97556.34;5073540;28;20048;-65
2023/08/05 10:27:43;;;;;;;29.30;21.25;;;;;;;33.86;91.26;97549.81;5070591;28;20453;-66
2023/08/05 10:30:15;;;;;;;36.92;21.50;;;;;;;33.76;89.70;97541.06;5057424;28;20204;-67
2023/08/05 10:32:51;;;;;;;29.80;19.17;;;;;;;33.78;88.60;97546.16;5099011;27;20071;-66
2023/08/05 10:35:26;;;;;;;33.85;20.75;;;;;;;33.73;91.67;97543.72;5094838;28;20052;-66
2023/08/05 10:38:11;;;;;;;27.67;17.92;;;;;;;33.79;87.79;97539.50;5096498;27;20058;-66
2023/08/05 10:40:51;;;;;;;26.33;19.23;;;;;;;33.81;89.86;97537.97;5078104;28;20059;-66
2023/08/05 10:43:33;;;;;;;33.97;18.98;;;;;;;33.78;90.04;97532.44;5094391;27;20497;-66
2023/08/05 10:46:06;;;;;;;29.00;20.00;;;;;;;33.77;90.43;97534.38;5063853;28;20142;-66
2023/08/05 10:48:43;;;;;;;27.77;17.88;;;;;;;33.68;86.77;97533.88;5077464;28;20214;-66
2023/08/05 10:51:14;;;;;;;31.30;18.50;;;;;;;33.66;89.99;97532.66;5092125;28;20171;-66
2023/08/05 10:53:58;;;;;;;32.83;19.25;;;;;;;33.63;90.51;97539.69;5083968;27;20068;-66
2023/08/05 10:56:34;;;;;;;26.65;18.50;;;;;;;33.65;91.02;97533.78;5097353;28;20540;-66
2023/08/05 10:59:06;;;;;;;30.35;19.80;;;;;;;33.54;93.06;97530.91;5094199;27;20125;-67
2023/08/05 11:01:55;;;;;;;27.30;19.60;;;;;;;33.53;93.44;97520.28;5080212;28;20128;-66
2023/08/05 11:04:32;;;;;;;29.58;18.67;;;;;;;33.55;92.70;97496.78;5096992;27;20036;-66
2023/08/05 11:07:03;;;;;;;28.15;18.15;;;;;;;33.54;92.42;97495.22;5080213;28;20789;-68
2023/08/05 11:09:35;;;;;;;30.77;19.15;;;;;;;33.56;92.43;97498.38;5081364;28;20043;-64
2023/08/05 11:12:06;;;;;;;30.60;19.77;;;;;;;33.50;92.52;97490.84;5102776;28;20799;-65
2023/08/05 11:14:55;;;;;;;36.70;19.55;;;;;;;33.44;90.45;97490.38;5096360;28;20058;-63
2023/08/05 11:17:25;;;;;;;28.08;16.98;;;;;;;33.47;90.46;97489.63;5097652;27;20062;-65
2023/08/05 11:19:56;;;;;;;26.02;17.38;;;;;;;33.51;89.77;97490.44;5076850;28;20051;-65
2023/08/05 11:22:32;;;;;;;24.63;17.65;;;;;;;33.51;91.03;97479.47;5082997;28;20043;-64
2023/08/05 11:25:04;;;;;;;23.60;17.45;;;;;;;33.53;92.23;97484.59;5081009;27;20525;-66
2023/08/05 11:27:37;;;;;;;27.67;18.52;;;;;;;33.42;90.33;97478.94;5081991;28;20140;-65
2023/08/05 11:30:17;;;;;;;29.50;17.83;;;;;;;33.35;90.16;97487.09;5081760;28;20541;-66
2023/08/05 11:32:55;;;;;;;25.65;17.25;;;;;;;33.29;92.79;97488.56;5099008;28;20044;-65
2023/08/05 11:35:26;;;;;;;23.80;15.65;;;;;;;33.27;90.03;97510.94;5075186;28;20044;-64
2023/08/05 11:37:56;;;;;;;27.85;17.05;;;;;;;33.21;91.97;97503.38;5102349;27;20452;-66
2023/08/05 11:40:28;;;;;;;24.38;15.57;;;;;;;33.17;91.15;97506.06;5095647;27;20047;-66
2023/08/05 11:42:57;;;;;;;24.17;15.70;;;;;;;33.11;91.67;97499.25;5090301;28;20160;-67
2023/08/05 11:45:27;;;;;;;25.33;15.93;;;;;;;33.09;90.92;97509.03;5076104;28;20048;-66
2023/08/05 11:47:56;;;;;;;22.23;15.13;;;;;;;33.08;92.49;97501.97;5065045;28;20046;-65
2023/08/05 11:50:36;;;;;;;21.23;15.48;;;;;;;33.04;92.70;97503.84;5079569;28;20063;-66
2023/08/05 11:53:08;;;;;;;25.13;14.73;;;;;;;33.05;92.31;97510.94;5091302;28;20048;-66